sensor_id;sensor_type;location;lat;lon;timestamp;P1;durP1;ratioP1;P2;durP2;ratioP2
38717;SDS011;24468;52.128;9.278;2023-05-02T00:02:00;5.60;;;4.10;;
38717;SDS011;24468;52.128;9.278;2023-05-02T00:04:25;6.65;;;4.32;;
38717;SDS011;24468;52.128;9.278;2023-05-02T00:06:53;7.10;;;4.75;;
38717;SDS011;24468;52.128;9.278;2023-05-02T00:09:19;10.35;;;4.88;;
38717;SDS011;24468;52.128;9.278;2023-05-02T00:11:45;5.88;;;4.93;;
38717;SDS011;24468;52.128;9.278;2023-05-02T00:14:11;5.65;;;4.38;;
38717;SDS011;24468;52.128;9.278;2023-05-02T00:16:36;8.27;;;4.10;;
38717;SDS011;24468;52.128;9.278;2023-05-02T00:19:02;7.97;;;4.57;;
38717;SDS011;24468;52.128;9.278;2023-05-02T00:21:28;7.03;;;4.28;;
38717;SDS011;24468;52.128;9.278;2023-05-02T00:23:54;5.20;;;3.85;;
38717;SDS011;24468;52.128;9.278;2023-05-02T00:26:23;5.35;;;3.65;;
38717;SDS011;24468;52.128;9.278;2023-05-02T00:28:49;7.20;;;3.58;;
38717;SDS011;24468;52.128;9.278;2023-05-02T00:31:14;5.60;;;3.95;;
38717;SDS011;24468;52.128;9.278;2023-05-02T00:33:40;5.70;;;3.97;;
38717;SDS011;24468;52.128;9.278;2023-05-02T00:36:13;4.85;;;4.10;;
38717;SDS011;24468;52.128;9.278;2023-05-02T00:38:40;5.55;;;3.42;;
38717;SDS011;24468;52.128;9.278;2023-05-02T00:41:05;6.32;;;3.45;;
38717;SDS011;24468;52.128;9.278;2023-05-02T00:43:31;6.07;;;3.65;;
38717;SDS011;24468;52.128;9.278;2023-05-02T00:45:57;5.68;;;3.20;;
38717;SDS011;24468;52.128;9.278;2023-05-02T00:48:23;4.72;;;4.00;;
38717;SDS011;24468;52.128;9.278;2023-05-02T00:50:49;6.28;;;3.83;;
38717;SDS011;24468;52.128;9.278;2023-05-02T00:53:15;6.50;;;3.60;;
38717;SDS011;24468;52.128;9.278;2023-05-02T00:55:41;5.13;;;4.57;;
38717;SDS011;24468;52.128;9.278;2023-05-02T00:58:13;6.68;;;4.65;;
38717;SDS011;24468;52.128;9.278;2023-05-02T01:01:03;7.65;;;3.72;;
38717;SDS011;24468;52.128;9.278;2023-05-02T01:04:20;7.10;;;4.40;;
38717;SDS011;24468;52.128;9.278;2023-05-02T01:07:24;6.55;;;4.18;;
38717;SDS011;24468;52.128;9.278;2023-05-02T01:10:32;4.88;;;3.90;;
38717;SDS011;24468;52.128;9.278;2023-05-02T01:13:31;5.95;;;4.05;;
38717;SDS011;24468;52.128;9.278;2023-05-02T01:15:59;5.05;;;3.90;;
38717;SDS011;24468;52.128;9.278;2023-05-02T01:18:30;5.53;;;4.60;;
38717;SDS011;24468;52.128;9.278;2023-05-02T01:21:00;7.30;;;4.55;;
38717;SDS011;24468;52.128;9.278;2023-05-02T01:26:50;7.20;;;4.70;;
38717;SDS011;24468;52.128;9.278;2023-05-02T01:29:35;5.45;;;4.82;;
38717;SDS011;24468;52.128;9.278;2023-05-02T01:32:03;7.13;;;5.50;;
38717;SDS011;24468;52.128;9.278;2023-05-02T01:34:31;11.85;;;8.93;;
38717;SDS011;24468;52.128;9.278;2023-05-02T01:36:58;15.13;;;11.50;;
38717;SDS011;24468;52.128;9.278;2023-05-02T01:39:26;14.68;;;11.60;;
38717;SDS011;24468;52.128;9.278;2023-05-02T01:41:53;15.65;;;12.30;;
38717;SDS011;24468;52.128;9.278;2023-05-02T01:44:22;16.75;;;12.57;;
38717;SDS011;24468;52.128;9.278;2023-05-02T01:46:49;19.48;;;14.23;;
38717;SDS011;24468;52.128;9.278;2023-05-02T01:49:17;22.15;;;12.75;;
38717;SDS011;24468;52.128;9.278;2023-05-02T01:51:46;14.75;;;13.15;;
38717;SDS011;24468;52.128;9.278;2023-05-02T01:54:14;17.25;;;12.52;;
38717;SDS011;24468;52.128;9.278;2023-05-02T01:56:41;18.20;;;11.65;;
38717;SDS011;24468;52.128;9.278;2023-05-02T01:59:08;14.85;;;12.25;;
38717;SDS011;24468;52.128;9.278;2023-05-02T02:01:37;19.90;;;11.85;;
38717;SDS011;24468;52.128;9.278;2023-05-02T02:04:05;13.27;;;10.52;;
38717;SDS011;24468;52.128;9.278;2023-05-02T02:06:35;16.02;;;11.75;;
38717;SDS011;24468;52.128;9.278;2023-05-02T02:09:01;16.48;;;10.40;;
38717;SDS011;24468;52.128;9.278;2023-05-02T02:11:34;14.40;;;11.18;;
38717;SDS011;24468;52.128;9.278;2023-05-02T02:14:16;15.23;;;11.40;;
38717;SDS011;24468;52.128;9.278;2023-05-02T02:16:49;15.30;;;11.75;;
38717;SDS011;24468;52.128;9.278;2023-05-02T02:19:20;13.15;;;10.10;;
38717;SDS011;24468;52.128;9.278;2023-05-02T02:21:46;17.38;;;11.55;;
38717;SDS011;24468;52.128;9.278;2023-05-02T02:24:15;17.92;;;11.15;;
38717;SDS011;24468;52.128;9.278;2023-05-02T02:26:44;14.43;;;10.90;;
38717;SDS011;24468;52.128;9.278;2023-05-02T02:29:10;15.35;;;10.95;;
38717;SDS011;24468;52.128;9.278;2023-05-02T02:31:36;13.35;;;10.63;;
38717;SDS011;24468;52.128;9.278;2023-05-02T02:34:03;15.05;;;10.70;;
38717;SDS011;24468;52.128;9.278;2023-05-02T02:39:34;13.90;;;10.18;;
38717;SDS011;24468;52.128;9.278;2023-05-02T02:42:24;12.88;;;9.77;;
38717;SDS011;24468;52.128;9.278;2023-05-02T02:45:29;12.38;;;9.43;;
38717;SDS011;24468;52.128;9.278;2023-05-02T02:50:41;13.15;;;10.68;;
38717;SDS011;24468;52.128;9.278;2023-05-02T02:53:45;12.73;;;9.82;;
38717;SDS011;24468;52.128;9.278;2023-05-02T02:56:41;11.73;;;9.30;;
38717;SDS011;24468;52.128;9.278;2023-05-02T02:59:26;11.70;;;9.73;;
38717;SDS011;24468;52.128;9.278;2023-05-02T03:04:32;11.15;;;9.95;;
38717;SDS011;24468;52.128;9.278;2023-05-02T03:07:02;16.15;;;10.88;;
38717;SDS011;24468;52.128;9.278;2023-05-02T03:09:38;12.07;;;9.90;;
38717;SDS011;24468;52.128;9.278;2023-05-02T03:12:08;14.30;;;10.88;;
38717;SDS011;24468;52.128;9.278;2023-05-02T03:14:34;13.52;;;10.52;;
38717;SDS011;24468;52.128;9.278;2023-05-02T03:17:01;13.63;;;11.32;;
38717;SDS011;24468;52.128;9.278;2023-05-02T03:19:27;13.63;;;11.40;;
38717;SDS011;24468;52.128;9.278;2023-05-02T03:21:53;14.38;;;11.50;;
38717;SDS011;24468;52.128;9.278;2023-05-02T03:24:18;13.32;;;10.27;;
38717;SDS011;24468;52.128;9.278;2023-05-02T03:26:44;15.18;;;12.02;;
38717;SDS011;24468;52.128;9.278;2023-05-02T03:29:11;18.00;;;11.90;;
38717;SDS011;24468;52.128;9.278;2023-05-02T03:31:37;14.40;;;11.85;;
38717;SDS011;24468;52.128;9.278;2023-05-02T03:34:02;15.48;;;11.82;;
38717;SDS011;24468;52.128;9.278;2023-05-02T03:36:28;12.98;;;11.02;;
38717;SDS011;24468;52.128;9.278;2023-05-02T03:38:53;20.15;;;13.75;;
38717;SDS011;24468;52.128;9.278;2023-05-02T03:41:19;18.63;;;13.15;;
38717;SDS011;24468;52.128;9.278;2023-05-02T03:43:45;15.43;;;13.07;;
38717;SDS011;24468;52.128;9.278;2023-05-02T03:46:11;18.17;;;12.98;;
38717;SDS011;24468;52.128;9.278;2023-05-02T03:48:36;17.10;;;13.45;;
38717;SDS011;24468;52.128;9.278;2023-05-02T03:51:03;17.85;;;13.82;;
38717;SDS011;24468;52.128;9.278;2023-05-02T03:53:32;17.15;;;13.48;;
38717;SDS011;24468;52.128;9.278;2023-05-02T03:55:57;19.42;;;15.93;;
38717;SDS011;24468;52.128;9.278;2023-05-02T03:58:23;25.52;;;16.23;;
38717;SDS011;24468;52.128;9.278;2023-05-02T04:00:49;23.35;;;15.63;;
38717;SDS011;24468;52.128;9.278;2023-05-02T04:03:17;21.83;;;16.45;;
38717;SDS011;24468;52.128;9.278;2023-05-02T04:05:44;22.20;;;16.73;;
38717;SDS011;24468;52.128;9.278;2023-05-02T04:08:10;25.15;;;16.63;;
38717;SDS011;24468;52.128;9.278;2023-05-02T04:10:35;27.33;;;18.85;;
38717;SDS011;24468;52.128;9.278;2023-05-02T04:13:02;21.33;;;16.67;;
38717;SDS011;24468;52.128;9.278;2023-05-02T04:15:28;23.38;;;16.85;;
38717;SDS011;24468;52.128;9.278;2023-05-02T04:17:56;21.55;;;16.60;;
38717;SDS011;24468;52.128;9.278;2023-05-02T04:20:22;21.40;;;16.73;;
38717;SDS011;24468;52.128;9.278;2023-05-02T04:22:47;21.17;;;17.02;;
38717;SDS011;24468;52.128;9.278;2023-05-02T04:25:14;23.40;;;16.42;;
38717;SDS011;24468;52.128;9.278;2023-05-02T04:27:40;20.02;;;14.75;;
38717;SDS011;24468;52.128;9.278;2023-05-02T04:30:05;24.35;;;17.05;;
38717;SDS011;24468;52.128;9.278;2023-05-02T04:32:32;22.83;;;16.55;;
38717;SDS011;24468;52.128;9.278;2023-05-02T04:34:58;19.20;;;13.57;;
38717;SDS011;24468;52.128;9.278;2023-05-02T04:37:24;21.30;;;14.70;;
38717;SDS011;24468;52.128;9.278;2023-05-02T04:39:49;20.27;;;14.27;;
38717;SDS011;24468;52.128;9.278;2023-05-02T04:42:15;21.05;;;15.20;;
38717;SDS011;24468;52.128;9.278;2023-05-02T04:44:40;20.88;;;14.52;;
38717;SDS011;24468;52.128;9.278;2023-05-02T04:47:06;19.52;;;12.90;;
38717;SDS011;24468;52.128;9.278;2023-05-02T04:49:31;19.98;;;12.85;;
38717;SDS011;24468;52.128;9.278;2023-05-02T04:51:57;19.75;;;11.73;;
38717;SDS011;24468;52.128;9.278;2023-05-02T04:54:23;16.17;;;12.25;;
38717;SDS011;24468;52.128;9.278;2023-05-02T04:56:48;16.05;;;11.25;;
38717;SDS011;24468;52.128;9.278;2023-05-02T04:59:14;16.13;;;10.00;;
38717;SDS011;24468;52.128;9.278;2023-05-02T05:01:39;15.77;;;10.63;;
38717;SDS011;24468;52.128;9.278;2023-05-02T05:04:05;14.95;;;10.43;;
38717;SDS011;24468;52.128;9.278;2023-05-02T05:06:30;14.73;;;10.63;;
38717;SDS011;24468;52.128;9.278;2023-05-02T05:08:56;14.77;;;10.30;;
38717;SDS011;24468;52.128;9.278;2023-05-02T05:11:22;13.88;;;10.32;;
38717;SDS011;24468;52.128;9.278;2023-05-02T05:13:47;11.93;;;8.82;;
38717;SDS011;24468;52.128;9.278;2023-05-02T05:16:14;12.88;;;9.38;;
38717;SDS011;24468;52.128;9.278;2023-05-02T05:18:39;13.77;;;9.02;;
38717;SDS011;24468;52.128;9.278;2023-05-02T05:21:05;14.32;;;8.88;;
38717;SDS011;24468;52.128;9.278;2023-05-02T05:23:32;15.50;;;8.50;;
38717;SDS011;24468;52.128;9.278;2023-05-02T05:26:07;14.02;;;9.20;;
38717;SDS011;24468;52.128;9.278;2023-05-02T05:28:37;14.10;;;8.93;;
38717;SDS011;24468;52.128;9.278;2023-05-02T05:31:06;10.73;;;8.13;;
38717;SDS011;24468;52.128;9.278;2023-05-02T05:33:37;13.93;;;8.82;;
38717;SDS011;24468;52.128;9.278;2023-05-02T05:36:06;11.13;;;7.38;;
38717;SDS011;24468;52.128;9.278;2023-05-02T05:38:34;10.32;;;7.75;;
38717;SDS011;24468;52.128;9.278;2023-05-02T05:41:00;11.70;;;8.43;;
38717;SDS011;24468;52.128;9.278;2023-05-02T05:43:26;15.25;;;7.78;;
38717;SDS011;24468;52.128;9.278;2023-05-02T05:45:52;11.75;;;7.15;;
38717;SDS011;24468;52.128;9.278;2023-05-02T05:48:18;2.75;;;2.03;;
38717;SDS011;24468;52.128;9.278;2023-05-02T05:50:44;3.33;;;2.85;;
38717;SDS011;24468;52.128;9.278;2023-05-02T05:53:10;8.05;;;3.03;;
38717;SDS011;24468;52.128;9.278;2023-05-02T05:55:36;4.20;;;3.17;;
38717;SDS011;24468;52.128;9.278;2023-05-02T05:58:04;5.28;;;4.32;;
38717;SDS011;24468;52.128;9.278;2023-05-02T06:00:32;7.75;;;5.60;;
38717;SDS011;24468;52.128;9.278;2023-05-02T06:02:59;10.07;;;5.95;;
38717;SDS011;24468;52.128;9.278;2023-05-02T06:05:25;10.68;;;7.00;;
38717;SDS011;24468;52.128;9.278;2023-05-02T06:07:50;9.48;;;6.80;;
38717;SDS011;24468;52.128;9.278;2023-05-02T06:10:16;10.48;;;6.72;;
38717;SDS011;24468;52.128;9.278;2023-05-02T06:12:41;8.88;;;6.28;;
38717;SDS011;24468;52.128;9.278;2023-05-02T06:15:07;9.80;;;6.15;;
38717;SDS011;24468;52.128;9.278;2023-05-02T06:17:33;8.43;;;6.90;;
38717;SDS011;24468;52.128;9.278;2023-05-02T06:19:58;8.82;;;6.53;;
38717;SDS011;24468;52.128;9.278;2023-05-02T06:22:24;12.60;;;6.55;;
38717;SDS011;24468;52.128;9.278;2023-05-02T06:24:50;8.68;;;6.97;;
38717;SDS011;24468;52.128;9.278;2023-05-02T06:27:15;11.02;;;8.27;;
38717;SDS011;24468;52.128;9.278;2023-05-02T06:29:41;17.25;;;9.75;;
38717;SDS011;24468;52.128;9.278;2023-05-02T06:32:06;11.25;;;8.05;;
38717;SDS011;24468;52.128;9.278;2023-05-02T06:34:32;14.98;;;8.63;;
38717;SDS011;24468;52.128;9.278;2023-05-02T06:36:58;11.27;;;8.32;;
38717;SDS011;24468;52.128;9.278;2023-05-02T06:39:23;12.75;;;7.72;;
38717;SDS011;24468;52.128;9.278;2023-05-02T06:41:49;11.50;;;7.80;;
38717;SDS011;24468;52.128;9.278;2023-05-02T06:44:15;12.70;;;6.60;;
38717;SDS011;24468;52.128;9.278;2023-05-02T06:46:41;12.13;;;6.47;;
38717;SDS011;24468;52.128;9.278;2023-05-02T06:49:07;8.82;;;5.85;;
38717;SDS011;24468;52.128;9.278;2023-05-02T06:51:32;6.68;;;4.32;;
38717;SDS011;24468;52.128;9.278;2023-05-02T06:53:58;7.25;;;4.43;;
38717;SDS011;24468;52.128;9.278;2023-05-02T06:56:23;6.95;;;4.70;;
38717;SDS011;24468;52.128;9.278;2023-05-02T06:58:50;5.93;;;4.65;;
38717;SDS011;24468;52.128;9.278;2023-05-02T07:01:16;6.05;;;3.75;;
38717;SDS011;24468;52.128;9.278;2023-05-02T07:03:42;7.40;;;5.07;;
38717;SDS011;24468;52.128;9.278;2023-05-02T07:06:08;6.32;;;3.97;;
38717;SDS011;24468;52.128;9.278;2023-05-02T07:08:33;5.15;;;3.75;;
38717;SDS011;24468;52.128;9.278;2023-05-02T07:10:59;6.47;;;4.22;;
38717;SDS011;24468;52.128;9.278;2023-05-02T07:13:25;7.68;;;5.28;;
38717;SDS011;24468;52.128;9.278;2023-05-02T07:15:50;8.93;;;5.03;;
38717;SDS011;24468;52.128;9.278;2023-05-02T07:18:16;6.75;;;5.47;;
38717;SDS011;24468;52.128;9.278;2023-05-02T07:20:42;8.80;;;4.72;;
38717;SDS011;24468;52.128;9.278;2023-05-02T07:23:07;16.73;;;6.75;;
38717;SDS011;24468;52.128;9.278;2023-05-02T07:25:33;8.90;;;5.65;;
38717;SDS011;24468;52.128;9.278;2023-05-02T07:27:59;10.07;;;6.10;;
38717;SDS011;24468;52.128;9.278;2023-05-02T07:30:24;11.70;;;5.88;;
38717;SDS011;24468;52.128;9.278;2023-05-02T07:32:50;8.70;;;6.07;;
38717;SDS011;24468;52.128;9.278;2023-05-02T07:35:15;12.98;;;6.25;;
38717;SDS011;24468;52.128;9.278;2023-05-02T07:37:41;13.10;;;6.20;;
38717;SDS011;24468;52.128;9.278;2023-05-02T07:40:07;8.90;;;4.97;;
38717;SDS011;24468;52.128;9.278;2023-05-02T07:42:33;8.25;;;5.55;;
38717;SDS011;24468;52.128;9.278;2023-05-02T07:45:00;12.48;;;5.93;;
38717;SDS011;24468;52.128;9.278;2023-05-02T07:47:26;13.40;;;7.45;;
38717;SDS011;24468;52.128;9.278;2023-05-02T07:49:54;13.93;;;6.65;;
38717;SDS011;24468;52.128;9.278;2023-05-02T07:52:20;14.30;;;6.70;;
38717;SDS011;24468;52.128;9.278;2023-05-02T07:54:46;10.98;;;5.82;;
38717;SDS011;24468;52.128;9.278;2023-05-02T07:57:13;12.93;;;6.78;;
38717;SDS011;24468;52.128;9.278;2023-05-02T07:59:39;12.13;;;6.07;;
38717;SDS011;24468;52.128;9.278;2023-05-02T08:02:04;17.52;;;6.63;;
38717;SDS011;24468;52.128;9.278;2023-05-02T08:04:30;14.27;;;6.43;;
38717;SDS011;24468;52.128;9.278;2023-05-02T08:06:55;12.43;;;5.50;;
38717;SDS011;24468;52.128;9.278;2023-05-02T08:09:21;16.45;;;6.00;;
38717;SDS011;24468;52.128;9.278;2023-05-02T08:11:47;13.50;;;5.13;;
38717;SDS011;24468;52.128;9.278;2023-05-02T08:14:13;9.88;;;4.68;;
38717;SDS011;24468;52.128;9.278;2023-05-02T08:16:40;12.85;;;4.95;;
38717;SDS011;24468;52.128;9.278;2023-05-02T08:19:06;10.77;;;4.22;;
38717;SDS011;24468;52.128;9.278;2023-05-02T08:21:32;17.75;;;5.55;;
38717;SDS011;24468;52.128;9.278;2023-05-02T08:23:58;17.98;;;5.72;;
38717;SDS011;24468;52.128;9.278;2023-05-02T08:26:24;9.65;;;3.30;;
38717;SDS011;24468;52.128;9.278;2023-05-02T08:28:51;16.95;;;4.18;;
38717;SDS011;24468;52.128;9.278;2023-05-02T08:31:17;17.02;;;3.67;;
38717;SDS011;24468;52.128;9.278;2023-05-02T08:33:42;14.98;;;5.05;;
38717;SDS011;24468;52.128;9.278;2023-05-02T08:36:09;14.07;;;4.20;;
38717;SDS011;24468;52.128;9.278;2023-05-02T08:38:40;17.58;;;4.07;;
38717;SDS011;24468;52.128;9.278;2023-05-02T08:41:13;8.63;;;3.97;;
38717;SDS011;24468;52.128;9.278;2023-05-02T08:43:43;12.88;;;3.63;;
38717;SDS011;24468;52.128;9.278;2023-05-02T08:46:10;11.35;;;3.58;;
38717;SDS011;24468;52.128;9.278;2023-05-02T08:48:39;11.25;;;4.40;;
38717;SDS011;24468;52.128;9.278;2023-05-02T08:51:09;12.30;;;3.35;;
38717;SDS011;24468;52.128;9.278;2023-05-02T08:53:37;14.90;;;2.97;;
38717;SDS011;24468;52.128;9.278;2023-05-02T08:56:07;14.95;;;4.40;;
38717;SDS011;24468;52.128;9.278;2023-05-02T08:58:38;13.23;;;3.85;;
38717;SDS011;24468;52.128;9.278;2023-05-02T09:01:09;12.60;;;3.83;;
38717;SDS011;24468;52.128;9.278;2023-05-02T09:03:39;9.20;;;4.63;;
38717;SDS011;24468;52.128;9.278;2023-05-02T09:06:09;17.20;;;4.15;;
38717;SDS011;24468;52.128;9.278;2023-05-02T09:08:47;12.05;;;3.78;;
38717;SDS011;24468;52.128;9.278;2023-05-02T09:11:15;11.10;;;3.22;;
38717;SDS011;24468;52.128;9.278;2023-05-02T09:13:48;7.95;;;2.92;;
38717;SDS011;24468;52.128;9.278;2023-05-02T09:16:16;11.93;;;3.00;;
38717;SDS011;24468;52.128;9.278;2023-05-02T09:18:47;13.23;;;3.20;;
38717;SDS011;24468;52.128;9.278;2023-05-02T09:21:16;8.98;;;2.70;;
38717;SDS011;24468;52.128;9.278;2023-05-02T09:23:47;13.43;;;3.05;;
38717;SDS011;24468;52.128;9.278;2023-05-02T09:31:23;10.32;;;2.65;;
38717;SDS011;24468;52.128;9.278;2023-05-02T09:34:06;10.18;;;2.25;;
38717;SDS011;24468;52.128;9.278;2023-05-02T09:36:43;6.93;;;1.90;;
38717;SDS011;24468;52.128;9.278;2023-05-02T09:39:11;11.27;;;3.17;;
38717;SDS011;24468;52.128;9.278;2023-05-02T09:41:43;8.02;;;2.35;;
38717;SDS011;24468;52.128;9.278;2023-05-02T09:44:17;4.72;;;2.53;;
38717;SDS011;24468;52.128;9.278;2023-05-02T09:46:46;6.40;;;2.70;;
38717;SDS011;24468;52.128;9.278;2023-05-02T09:49:14;11.05;;;3.80;;
38717;SDS011;24468;52.128;9.278;2023-05-02T09:51:44;8.27;;;2.72;;
38717;SDS011;24468;52.128;9.278;2023-05-02T09:54:33;7.57;;;3.25;;
38717;SDS011;24468;52.128;9.278;2023-05-02T09:57:00;9.25;;;2.83;;
38717;SDS011;24468;52.128;9.278;2023-05-02T09:59:26;8.68;;;2.72;;
38717;SDS011;24468;52.128;9.278;2023-05-02T10:01:53;12.88;;;2.75;;
38717;SDS011;24468;52.128;9.278;2023-05-02T10:04:37;7.72;;;2.55;;
38717;SDS011;24468;52.128;9.278;2023-05-02T10:07:04;6.38;;;2.35;;
38717;SDS011;24468;52.128;9.278;2023-05-02T10:09:30;8.55;;;2.80;;
38717;SDS011;24468;52.128;9.278;2023-05-02T10:12:01;11.85;;;3.60;;
38717;SDS011;24468;52.128;9.278;2023-05-02T10:14:29;6.18;;;2.30;;
38717;SDS011;24468;52.128;9.278;2023-05-02T10:17:00;9.38;;;3.70;;
38717;SDS011;24468;52.128;9.278;2023-05-02T10:19:37;7.38;;;3.67;;
38717;SDS011;24468;52.128;9.278;2023-05-02T10:22:13;8.23;;;2.72;;
38717;SDS011;24468;52.128;9.278;2023-05-02T10:24:43;9.00;;;3.92;;
38717;SDS011;24468;52.128;9.278;2023-05-02T10:27:09;11.40;;;3.50;;
38717;SDS011;24468;52.128;9.278;2023-05-02T10:29:35;11.15;;;3.25;;
38717;SDS011;24468;52.128;9.278;2023-05-02T10:32:03;7.45;;;2.83;;
38717;SDS011;24468;52.128;9.278;2023-05-02T10:34:31;7.90;;;2.85;;
38717;SDS011;24468;52.128;9.278;2023-05-02T10:36:57;6.85;;;3.22;;
38717;SDS011;24468;52.128;9.278;2023-05-02T10:39:26;7.05;;;2.63;;
38717;SDS011;24468;52.128;9.278;2023-05-02T10:41:57;7.03;;;2.72;;
38717;SDS011;24468;52.128;9.278;2023-05-02T10:44:31;9.63;;;3.47;;
38717;SDS011;24468;52.128;9.278;2023-05-02T10:46:58;8.18;;;2.50;;
38717;SDS011;24468;52.128;9.278;2023-05-02T10:49:24;11.23;;;3.28;;
38717;SDS011;24468;52.128;9.278;2023-05-02T10:51:51;11.38;;;3.65;;
38717;SDS011;24468;52.128;9.278;2023-05-02T11:05:01;15.40;;;4.40;;
38717;SDS011;24468;52.128;9.278;2023-05-02T11:07:32;7.75;;;2.67;;
38717;SDS011;24468;52.128;9.278;2023-05-02T11:12:47;5.80;;;3.17;;
38717;SDS011;24468;52.128;9.278;2023-05-02T11:18:04;14.88;;;3.58;;
38717;SDS011;24468;52.128;9.278;2023-05-02T11:20:36;9.85;;;2.95;;
38717;SDS011;24468;52.128;9.278;2023-05-02T11:33:55;8.45;;;3.38;;
38717;SDS011;24468;52.128;9.278;2023-05-02T11:36:31;7.53;;;2.42;;
38717;SDS011;24468;52.128;9.278;2023-05-02T11:38:58;10.52;;;3.92;;
38717;SDS011;24468;52.128;9.278;2023-05-02T11:41:38;10.00;;;3.33;;
38717;SDS011;24468;52.128;9.278;2023-05-02T11:44:04;10.48;;;3.90;;
38717;SDS011;24468;52.128;9.278;2023-05-02T11:46:30;7.07;;;2.30;;
38717;SDS011;24468;52.128;9.278;2023-05-02T11:48:55;11.27;;;2.85;;
38717;SDS011;24468;52.128;9.278;2023-05-02T11:51:22;8.57;;;2.83;;
38717;SDS011;24468;52.128;9.278;2023-05-02T11:53:48;5.88;;;2.30;;
38717;SDS011;24468;52.128;9.278;2023-05-02T11:56:13;8.10;;;2.83;;
38717;SDS011;24468;52.128;9.278;2023-05-02T11:58:39;5.00;;;2.30;;
38717;SDS011;24468;52.128;9.278;2023-05-02T12:01:14;6.95;;;2.33;;
38717;SDS011;24468;52.128;9.278;2023-05-02T12:03:41;5.30;;;2.53;;
38717;SDS011;24468;52.128;9.278;2023-05-02T12:06:16;13.15;;;2.40;;
38717;SDS011;24468;52.128;9.278;2023-05-02T12:08:45;2.80;;;2.08;;
38717;SDS011;24468;52.128;9.278;2023-05-02T12:11:14;7.20;;;2.40;;
38717;SDS011;24468;52.128;9.278;2023-05-02T12:13:47;8.73;;;2.50;;
38717;SDS011;24468;52.128;9.278;2023-05-02T12:16:13;7.72;;;2.58;;
38717;SDS011;24468;52.128;9.278;2023-05-02T12:18:40;4.70;;;2.15;;
38717;SDS011;24468;52.128;9.278;2023-05-02T12:21:06;5.28;;;2.35;;
38717;SDS011;24468;52.128;9.278;2023-05-02T12:23:32;2.60;;;1.92;;
38717;SDS011;24468;52.128;9.278;2023-05-02T12:25:58;9.68;;;2.47;;
38717;SDS011;24468;52.128;9.278;2023-05-02T12:28:23;4.30;;;2.22;;
38717;SDS011;24468;52.128;9.278;2023-05-02T12:30:49;4.07;;;2.40;;
38717;SDS011;24468;52.128;9.278;2023-05-02T12:33:16;8.82;;;2.95;;
38717;SDS011;24468;52.128;9.278;2023-05-02T12:35:42;6.40;;;2.67;;
38717;SDS011;24468;52.128;9.278;2023-05-02T12:38:15;7.15;;;2.72;;
38717;SDS011;24468;52.128;9.278;2023-05-02T12:40:51;6.68;;;2.47;;
38717;SDS011;24468;52.128;9.278;2023-05-02T12:43:18;7.43;;;2.85;;
38717;SDS011;24468;52.128;9.278;2023-05-02T12:45:46;5.72;;;2.22;;
38717;SDS011;24468;52.128;9.278;2023-05-02T12:50:52;3.97;;;2.20;;
38717;SDS011;24468;52.128;9.278;2023-05-02T12:56:08;5.85;;;2.97;;
38717;SDS011;24468;52.128;9.278;2023-05-02T12:58:45;7.35;;;3.20;;
38717;SDS011;24468;52.128;9.278;2023-05-02T13:01:12;8.35;;;2.78;;
38717;SDS011;24468;52.128;9.278;2023-05-02T13:03:39;11.20;;;3.22;;
38717;SDS011;24468;52.128;9.278;2023-05-02T13:06:06;8.25;;;2.53;;
38717;SDS011;24468;52.128;9.278;2023-05-02T13:08:32;7.55;;;2.85;;
38717;SDS011;24468;52.128;9.278;2023-05-02T13:10:58;10.65;;;3.08;;
38717;SDS011;24468;52.128;9.278;2023-05-02T13:13:28;8.40;;;3.13;;
38717;SDS011;24468;52.128;9.278;2023-05-02T13:15:54;6.15;;;2.55;;
38717;SDS011;24468;52.128;9.278;2023-05-02T13:18:20;5.72;;;2.70;;
38717;SDS011;24468;52.128;9.278;2023-05-02T13:20:45;7.28;;;3.15;;
38717;SDS011;24468;52.128;9.278;2023-05-02T13:23:11;5.32;;;2.75;;
38717;SDS011;24468;52.128;9.278;2023-05-02T13:25:36;5.55;;;2.67;;
38717;SDS011;24468;52.128;9.278;2023-05-02T13:28:02;7.35;;;3.05;;
38717;SDS011;24468;52.128;9.278;2023-05-02T13:30:28;8.23;;;3.45;;
38717;SDS011;24468;52.128;9.278;2023-05-02T13:32:53;7.68;;;2.58;;
38717;SDS011;24468;52.128;9.278;2023-05-02T13:35:22;8.65;;;3.50;;
38717;SDS011;24468;52.128;9.278;2023-05-02T13:37:47;6.28;;;2.80;;
38717;SDS011;24468;52.128;9.278;2023-05-02T13:40:13;5.90;;;2.92;;
38717;SDS011;24468;52.128;9.278;2023-05-02T13:42:39;4.10;;;2.13;;
38717;SDS011;24468;52.128;9.278;2023-05-02T13:45:04;7.43;;;2.50;;
38717;SDS011;24468;52.128;9.278;2023-05-02T13:47:31;6.75;;;2.47;;
38717;SDS011;24468;52.128;9.278;2023-05-02T13:49:57;6.25;;;2.78;;
38717;SDS011;24468;52.128;9.278;2023-05-02T13:52:22;10.75;;;3.03;;
38717;SDS011;24468;52.128;9.278;2023-05-02T13:54:48;5.38;;;2.80;;
38717;SDS011;24468;52.128;9.278;2023-05-02T13:57:13;5.72;;;2.55;;
38717;SDS011;24468;52.128;9.278;2023-05-02T13:59:39;9.20;;;2.38;;
38717;SDS011;24468;52.128;9.278;2023-05-02T14:02:04;7.70;;;2.65;;
38717;SDS011;24468;52.128;9.278;2023-05-02T14:04:30;6.05;;;2.75;;
38717;SDS011;24468;52.128;9.278;2023-05-02T14:06:56;6.18;;;3.00;;
38717;SDS011;24468;52.128;9.278;2023-05-02T14:09:21;6.75;;;2.67;;
38717;SDS011;24468;52.128;9.278;2023-05-02T14:11:47;6.63;;;3.45;;
38717;SDS011;24468;52.128;9.278;2023-05-02T14:14:13;4.43;;;2.40;;
38717;SDS011;24468;52.128;9.278;2023-05-02T14:16:38;9.68;;;3.33;;
38717;SDS011;24468;52.128;9.278;2023-05-02T14:19:04;7.50;;;3.47;;
38717;SDS011;24468;52.128;9.278;2023-05-02T14:21:30;7.65;;;3.42;;
38717;SDS011;24468;52.128;9.278;2023-05-02T14:23:58;8.98;;;2.95;;
38717;SDS011;24468;52.128;9.278;2023-05-02T14:26:24;5.75;;;2.78;;
38717;SDS011;24468;52.128;9.278;2023-05-02T14:28:50;6.60;;;2.88;;
38717;SDS011;24468;52.128;9.278;2023-05-02T14:31:15;8.30;;;3.05;;
38717;SDS011;24468;52.128;9.278;2023-05-02T14:33:41;7.65;;;3.30;;
38717;SDS011;24468;52.128;9.278;2023-05-02T14:36:06;9.88;;;3.78;;
38717;SDS011;24468;52.128;9.278;2023-05-02T14:38:32;7.60;;;2.72;;
38717;SDS011;24468;52.128;9.278;2023-05-02T14:40:57;4.45;;;3.13;;
38717;SDS011;24468;52.128;9.278;2023-05-02T14:43:23;5.40;;;2.25;;
38717;SDS011;24468;52.128;9.278;2023-05-02T14:45:49;9.68;;;3.10;;
38717;SDS011;24468;52.128;9.278;2023-05-02T14:48:14;19.58;;;3.90;;
38717;SDS011;24468;52.128;9.278;2023-05-02T14:50:41;6.13;;;2.92;;
38717;SDS011;24468;52.128;9.278;2023-05-02T14:53:07;7.30;;;2.85;;
38717;SDS011;24468;52.128;9.278;2023-05-02T14:55:36;5.68;;;2.88;;
38717;SDS011;24468;52.128;9.278;2023-05-02T14:58:04;6.32;;;2.20;;
38717;SDS011;24468;52.128;9.278;2023-05-02T15:00:33;4.95;;;2.53;;
38717;SDS011;24468;52.128;9.278;2023-05-02T15:03:02;9.05;;;2.55;;
38717;SDS011;24468;52.128;9.278;2023-05-02T15:05:29;2.95;;;2.20;;
38717;SDS011;24468;52.128;9.278;2023-05-02T15:07:54;6.63;;;2.63;;
38717;SDS011;24468;52.128;9.278;2023-05-02T15:10:20;5.35;;;2.38;;
38717;SDS011;24468;52.128;9.278;2023-05-02T15:12:45;5.40;;;3.03;;
38717;SDS011;24468;52.128;9.278;2023-05-02T15:15:14;3.75;;;2.22;;
38717;SDS011;24468;52.128;9.278;2023-05-02T15:17:41;6.13;;;2.58;;
38717;SDS011;24468;52.128;9.278;2023-05-02T15:20:07;6.28;;;2.45;;
38717;SDS011;24468;52.128;9.278;2023-05-02T15:22:33;2.85;;;1.80;;
38717;SDS011;24468;52.128;9.278;2023-05-02T15:24:59;4.43;;;2.45;;
38717;SDS011;24468;52.128;9.278;2023-05-02T15:27:24;5.88;;;2.78;;
38717;SDS011;24468;52.128;9.278;2023-05-02T15:29:50;6.50;;;2.42;;
38717;SDS011;24468;52.128;9.278;2023-05-02T15:32:15;6.28;;;2.17;;
38717;SDS011;24468;52.128;9.278;2023-05-02T15:34:41;3.85;;;2.28;;